sensor_id;sensor_type;location;lat;lon;timestamp;temperature;humidity
74488;DHT22;63019;51.080;13.642;2024-01-10T00:00:56;-9.20;99.90
74488;DHT22;63019;51.080;13.642;2024-01-10T00:01:58;-9.20;99.90
74488;DHT22;63019;51.080;13.642;2024-01-10T00:03:00;-9.20;99.90
74488;DHT22;63019;51.080;13.642;2024-01-10T00:04:02;-9.10;99.90
74488;DHT22;63019;51.080;13.642;2024-01-10T00:05:05;-9.20;99.90
74488;DHT22;63019;51.080;13.642;2024-01-10T00:06:07;-9.20;99.90
74488;DHT22;63019;51.080;13.642;2024-01-10T00:07:10;-9.10;99.90
74488;DHT22;63019;51.080;13.642;2024-01-10T00:08:13;-9.20;99.90
74488;DHT22;63019;51.080;13.642;2024-01-10T00:09:17;-9.20;99.90
74488;DHT22;63019;51.080;13.642;2024-01-10T00:10:19;-9.20;99.90
74488;DHT22;63019;51.080;13.642;2024-01-10T00:11:21;-9.20;99.90
74488;DHT22;63019;51.080;13.642;2024-01-10T00:12:23;-9.20;99.90
74488;DHT22;63019;51.080;13.642;2024-01-10T00:13:25;-9.20;99.90
74488;DHT22;63019;51.080;13.642;2024-01-10T00:14:27;-9.20;99.90
74488;DHT22;63019;51.080;13.642;2024-01-10T00:15:29;-9.20;99.90
74488;DHT22;63019;51.080;13.642;2024-01-10T00:16:31;-9.20;99.90
74488;DHT22;63019;51.080;13.642;2024-01-10T00:17:33;-9.20;99.90
74488;DHT22;63019;51.080;13.642;2024-01-10T00:18:35;-9.20;99.90
74488;DHT22;63019;51.080;13.642;2024-01-10T00:19:37;-9.30;99.90
74488;DHT22;63019;51.080;13.642;2024-01-10T00:20:39;-9.20;99.90
74488;DHT22;63019;51.080;13.642;2024-01-10T00:21:41;-9.20;99.90
74488;DHT22;63019;51.080;13.642;2024-01-10T00:22:43;-9.20;99.90
74488;DHT22;63019;51.080;13.642;2024-01-10T00:23:45;-9.20;99.90
74488;DHT22;63019;51.080;13.642;2024-01-10T00:24:47;-9.20;99.90
74488;DHT22;63019;51.080;13.642;2024-01-10T00:25:49;-9.20;99.90
74488;DHT22;63019;51.080;13.642;2024-01-10T00:26:51;-9.20;99.90
74488;DHT22;63019;51.080;13.642;2024-01-10T00:27:52;-9.20;99.90
74488;DHT22;63019;51.080;13.642;2024-01-10T00:28:54;-9.20;99.90
74488;DHT22;63019;51.080;13.642;2024-01-10T00:30:06;-9.20;99.90
74488;DHT22;63019;51.080;13.642;2024-01-10T00:31:08;-9.20;99.90
74488;DHT22;63019;51.080;13.642;2024-01-10T00:32:10;-9.20;99.90
74488;DHT22;63019;51.080;13.642;2024-01-10T00:33:12;-9.20;99.90
74488;DHT22;63019;51.080;13.642;2024-01-10T00:34:14;-9.20;99.90
74488;DHT22;63019;51.080;13.642;2024-01-10T00:35:16;-9.30;99.90
74488;DHT22;63019;51.080;13.642;2024-01-10T00:36:18;-9.30;99.90
74488;DHT22;63019;51.080;13.642;2024-01-10T00:37:20;-9.30;99.90
74488;DHT22;63019;51.080;13.642;2024-01-10T00:38:21;-9.30;99.90
74488;DHT22;63019;51.080;13.642;2024-01-10T00:39:23;-9.30;99.90
74488;DHT22;63019;51.080;13.642;2024-01-10T00:40:25;-9.30;99.90
74488;DHT22;63019;51.080;13.642;2024-01-10T00:41:28;-9.30;99.90
74488;DHT22;63019;51.080;13.642;2024-01-10T00:42:30;-9.30;99.90
74488;DHT22;63019;51.080;13.642;2024-01-10T00:43:32;-9.30;99.90
74488;DHT22;63019;51.080;13.642;2024-01-10T00:44:34;-9.30;99.90
74488;DHT22;63019;51.080;13.642;2024-01-10T00:45:43;-9.40;99.90
74488;DHT22;63019;51.080;13.642;2024-01-10T00:47:10;-9.40;99.90
74488;DHT22;63019;51.080;13.642;2024-01-10T00:48:40;-9.40;99.90
74488;DHT22;63019;51.080;13.642;2024-01-10T00:50:26;-9.40;99.90
74488;DHT22;63019;51.080;13.642;2024-01-10T00:51:42;-9.40;99.90
74488;DHT22;63019;51.080;13.642;2024-01-10T00:52:52;-9.40;99.90
74488;DHT22;63019;51.080;13.642;2024-01-10T00:54:08;-9.40;99.90
74488;DHT22;63019;51.080;13.642;2024-01-10T00:55:11;-9.40;99.90
74488;DHT22;63019;51.080;13.642;2024-01-10T00:56:12;-9.40;99.90
74488;DHT22;63019;51.080;13.642;2024-01-10T00:57:14;-9.50;99.90
74488;DHT22;63019;51.080;13.642;2024-01-10T00:58:16;-9.50;99.90
74488;DHT22;63019;51.080;13.642;2024-01-10T00:59:18;-9.40;99.90
74488;DHT22;63019;51.080;13.642;2024-01-10T01:00:20;-9.40;99.90
74488;DHT22;63019;51.080;13.642;2024-01-10T01:01:22;-9.50;99.90
74488;DHT22;63019;51.080;13.642;2024-01-10T01:02:24;-9.50;99.90
74488;DHT22;63019;51.080;13.642;2024-01-10T01:03:26;-9.40;99.90
74488;DHT22;63019;51.080;13.642;2024-01-10T01:04:28;-9.40;99.90
74488;DHT22;63019;51.080;13.642;2024-01-10T01:05:30;-9.40;99.90
74488;DHT22;63019;51.080;13.642;2024-01-10T01:06:32;-9.40;99.90
74488;DHT22;63019;51.080;13.642;2024-01-10T01:07:34;-9.30;99.90
74488;DHT22;63019;51.080;13.642;2024-01-10T01:08:37;-9.40;99.90
74488;DHT22;63019;51.080;13.642;2024-01-10T01:09:39;-9.40;99.90
74488;DHT22;63019;51.080;13.642;2024-01-10T01:10:41;-9.30;99.90
74488;DHT22;63019;51.080;13.642;2024-01-10T01:11:42;-9.30;99.90
74488;DHT22;63019;51.080;13.642;2024-01-10T01:12:44;-9.30;99.90
74488;DHT22;63019;51.080;13.642;2024-01-10T01:13:46;-9.40;99.90
74488;DHT22;63019;51.080;13.642;2024-01-10T01:14:48;-9.40;99.90
74488;DHT22;63019;51.080;13.642;2024-01-10T01:15:50;-9.40;99.90
74488;DHT22;63019;51.080;13.642;2024-01-10T01:16:52;-9.40;99.90
74488;DHT22;63019;51.080;13.642;2024-01-10T01:17:54;-9.40;99.90
74488;DHT22;63019;51.080;13.642;2024-01-10T01:18:56;-9.40;99.90
74488;DHT22;63019;51.080;13.642;2024-01-10T01:19:57;-9.40;99.90
74488;DHT22;63019;51.080;13.642;2024-01-10T01:21:01;-9.40;99.90
74488;DHT22;63019;51.080;13.642;2024-01-10T01:22:03;-9.40;99.90
74488;DHT22;63019;51.080;13.642;2024-01-10T01:23:05;-9.40;99.90
74488;DHT22;63019;51.080;13.642;2024-01-10T01:24:07;-9.40;99.90
74488;DHT22;63019;51.080;13.642;2024-01-10T01:25:09;-9.40;99.90
74488;DHT22;63019;51.080;13.642;2024-01-10T01:26:11;-9.40;99.90
74488;DHT22;63019;51.080;13.642;2024-01-10T01:27:15;-9.40;99.90
74488;DHT22;63019;51.080;13.642;2024-01-10T01:28:16;-9.40;99.90
74488;DHT22;63019;51.080;13.642;2024-01-10T01:29:20;-9.50;99.90
74488;DHT22;63019;51.080;13.642;2024-01-10T01:30:22;-9.50;99.90
74488;DHT22;63019;51.080;13.642;2024-01-10T01:31:24;-9.50;99.90
74488;DHT22;63019;51.080;13.642;2024-01-10T01:32:26;-9.50;99.90
74488;DHT22;63019;51.080;13.642;2024-01-10T01:33:28;-9.50;99.90
74488;DHT22;63019;51.080;13.642;2024-01-10T01:34:30;-9.50;99.90
74488;DHT22;63019;51.080;13.642;2024-01-10T01:35:31;-9.50;99.90
74488;DHT22;63019;51.080;13.642;2024-01-10T01:36:33;-9.40;99.90
74488;DHT22;63019;51.080;13.642;2024-01-10T01:37:35;-9.40;99.90
74488;DHT22;63019;51.080;13.642;2024-01-10T01:38:37;-9.40;99.90
74488;DHT22;63019;51.080;13.642;2024-01-10T01:39:39;-9.40;99.90
74488;DHT22;63019;51.080;13.642;2024-01-10T01:40:41;-9.30;99.90
74488;DHT22;63019;51.080;13.642;2024-01-10T01:41:44;-9.30;99.90
74488;DHT22;63019;51.080;13.642;2024-01-10T01:42:46;-9.30;99.90
74488;DHT22;63019;51.080;13.642;2024-01-10T01:43:48;-9.30;99.90
74488;DHT22;63019;51.080;13.642;2024-01-10T01:44:50;-9.30;99.90
74488;DHT22;63019;51.080;13.642;2024-01-10T01:45:53;-9.30;99.90
74488;DHT22;63019;51.080;13.642;2024-01-10T01:47:01;-9.30;99.90
74488;DHT22;63019;51.080;13.642;2024-01-10T01:48:03;-9.40;99.90
74488;DHT22;63019;51.080;13.642;2024-01-10T01:49:05;-9.30;99.90
74488;DHT22;63019;51.080;13.642;2024-01-10T01:50:08;-9.40;99.90
74488;DHT22;63019;51.080;13.642;2024-01-10T01:51:12;-9.30;99.90
74488;DHT22;63019;51.080;13.642;2024-01-10T01:52:16;-9.30;99.90
74488;DHT22;63019;51.080;13.642;2024-01-10T01:53:18;-9.40;99.90
74488;DHT22;63019;51.080;13.642;2024-01-10T01:54:21;-9.30;99.90
74488;DHT22;63019;51.080;13.642;2024-01-10T01:55:23;-9.40;99.90
74488;DHT22;63019;51.080;13.642;2024-01-10T01:56:26;-9.40;99.90
74488;DHT22;63019;51.080;13.642;2024-01-10T01:57:28;-9.40;99.90
74488;DHT22;63019;51.080;13.642;2024-01-10T01:58:30;-9.50;99.90
74488;DHT22;63019;51.080;13.642;2024-01-10T01:59:33;-9.50;99.90
74488;DHT22;63019;51.080;13.642;2024-01-10T02:00:35;-9.50;99.90
74488;DHT22;63019;51.080;13.642;2024-01-10T02:01:37;-9.50;99.90
74488;DHT22;63019;51.080;13.642;2024-01-10T02:02:40;-9.50;99.90
74488;DHT22;63019;51.080;13.642;2024-01-10T02:03:42;-9.60;99.90
74488;DHT22;63019;51.080;13.642;2024-01-10T02:04:46;-9.70;99.90
74488;DHT22;63019;51.080;13.642;2024-01-10T02:05:48;-9.60;99.90
74488;DHT22;63019;51.080;13.642;2024-01-10T02:06:52;-9.60;99.90
74488;DHT22;63019;51.080;13.642;2024-01-10T02:07:54;-9.60;99.90
74488;DHT22;63019;51.080;13.642;2024-01-10T02:08:57;-9.60;99.90
74488;DHT22;63019;51.080;13.642;2024-01-10T02:09:59;-9.70;99.90
74488;DHT22;63019;51.080;13.642;2024-01-10T02:11:02;-9.70;99.90
74488;DHT22;63019;51.080;13.642;2024-01-10T02:12:05;-9.70;99.90
74488;DHT22;63019;51.080;13.642;2024-01-10T02:13:07;-9.80;99.90
74488;DHT22;63019;51.080;13.642;2024-01-10T02:14:12;-9.80;99.90
74488;DHT22;63019;51.080;13.642;2024-01-10T02:15:15;-9.80;99.90
74488;DHT22;63019;51.080;13.642;2024-01-10T02:16:18;-9.80;99.90
74488;DHT22;63019;51.080;13.642;2024-01-10T02:17:20;-9.80;99.90
74488;DHT22;63019;51.080;13.642;2024-01-10T02:18:22;-9.90;99.90
74488;DHT22;63019;51.080;13.642;2024-01-10T02:19:24;-9.90;99.90
74488;DHT22;63019;51.080;13.642;2024-01-10T02:20:28;-10.00;99.90
74488;DHT22;63019;51.080;13.642;2024-01-10T02:21:30;-10.00;99.90
74488;DHT22;63019;51.080;13.642;2024-01-10T02:22:32;-10.00;99.90
74488;DHT22;63019;51.080;13.642;2024-01-10T02:23:34;-10.00;99.90
74488;DHT22;63019;51.080;13.642;2024-01-10T02:24:36;-10.00;99.90
74488;DHT22;63019;51.080;13.642;2024-01-10T02:25:39;-10.00;99.90
74488;DHT22;63019;51.080;13.642;2024-01-10T02:26:41;-9.90;99.90
74488;DHT22;63019;51.080;13.642;2024-01-10T02:27:44;-9.90;99.90
74488;DHT22;63019;51.080;13.642;2024-01-10T02:28:45;-9.90;99.90
74488;DHT22;63019;51.080;13.642;2024-01-10T02:29:47;-9.90;99.90
74488;DHT22;63019;51.080;13.642;2024-01-10T02:30:53;-9.90;99.90
74488;DHT22;63019;51.080;13.642;2024-01-10T02:31:56;-9.90;99.90
74488;DHT22;63019;51.080;13.642;2024-01-10T02:32:58;-10.00;99.90
74488;DHT22;63019;51.080;13.642;2024-01-10T02:34:00;-9.90;99.90
74488;DHT22;63019;51.080;13.642;2024-01-10T02:35:01;-9.90;99.90
74488;DHT22;63019;51.080;13.642;2024-01-10T02:36:04;-9.90;99.90
74488;DHT22;63019;51.080;13.642;2024-01-10T02:37:06;-9.80;99.90
74488;DHT22;63019;51.080;13.642;2024-01-10T02:38:08;-9.70;99.90
74488;DHT22;63019;51.080;13.642;2024-01-10T02:39:10;-9.70;99.90
74488;DHT22;63019;51.080;13.642;2024-01-10T02:40:11;-9.70;99.90
74488;DHT22;63019;51.080;13.642;2024-01-10T02:41:13;-9.70;99.90
74488;DHT22;63019;51.080;13.642;2024-01-10T02:42:16;-9.60;99.90
74488;DHT22;63019;51.080;13.642;2024-01-10T02:43:18;-9.60;99.90
74488;DHT22;63019;51.080;13.642;2024-01-10T02:44:20;-9.60;99.90
74488;DHT22;63019;51.080;13.642;2024-01-10T02:45:23;-9.60;99.90
74488;DHT22;63019;51.080;13.642;2024-01-10T02:46:26;-9.60;99.90
74488;DHT22;63019;51.080;13.642;2024-01-10T02:47:30;-9.60;99.90
74488;DHT22;63019;51.080;13.642;2024-01-10T02:48:32;-9.60;99.90
74488;DHT22;63019;51.080;13.642;2024-01-10T02:49:34;-9.60;99.90
74488;DHT22;63019;51.080;13.642;2024-01-10T02:50:36;-9.50;99.90
74488;DHT22;63019;51.080;13.642;2024-01-10T02:51:40;-9.60;99.90
74488;DHT22;63019;51.080;13.642;2024-01-10T02:52:42;-9.60;99.90
74488;DHT22;63019;51.080;13.642;2024-01-10T02:53:44;-9.70;99.90
74488;DHT22;63019;51.080;13.642;2024-01-10T02:54:46;-9.70;99.90
74488;DHT22;63019;51.080;13.642;2024-01-10T02:55:48;-9.70;99.90
74488;DHT22;63019;51.080;13.642;2024-01-10T02:56:51;-9.70;99.90
74488;DHT22;63019;51.080;13.642;2024-01-10T02:57:53;-9.70;99.90
74488;DHT22;63019;51.080;13.642;2024-01-10T02:58:55;-9.80;99.90
74488;DHT22;63019;51.080;13.642;2024-01-10T02:59:57;-9.80;99.90
74488;DHT22;63019;51.080;13.642;2024-01-10T03:00:59;-9.80;99.90
74488;DHT22;63019;51.080;13.642;2024-01-10T03:02:02;-9.80;99.90
74488;DHT22;63019;51.080;13.642;2024-01-10T03:03:04;-9.70;99.90
74488;DHT22;63019;51.080;13.642;2024-01-10T03:04:06;-9.70;99.90
74488;DHT22;63019;51.080;13.642;2024-01-10T03:05:08;-9.70;99.90
74488;DHT22;63019;51.080;13.642;2024-01-10T03:06:10;-9.80;99.90
74488;DHT22;63019;51.080;13.642;2024-01-10T03:07:12;-9.80;99.90
74488;DHT22;63019;51.080;13.642;2024-01-10T03:08:14;-9.80;99.90
74488;DHT22;63019;51.080;13.642;2024-01-10T03:09:16;-9.90;99.90
74488;DHT22;63019;51.080;13.642;2024-01-10T03:10:18;-9.90;99.90
74488;DHT22;63019;51.080;13.642;2024-01-10T03:11:20;-9.90;99.90
74488;DHT22;63019;51.080;13.642;2024-01-10T03:12:22;-9.90;99.90
74488;DHT22;63019;51.080;13.642;2024-01-10T03:13:24;-9.90;99.90
74488;DHT22;63019;51.080;13.642;2024-01-10T03:14:26;-9.90;99.90
74488;DHT22;63019;51.080;13.642;2024-01-10T03:15:27;-9.90;99.90
74488;DHT22;63019;51.080;13.642;2024-01-10T03:16:30;-9.90;99.90
74488;DHT22;63019;51.080;13.642;2024-01-10T03:17:32;-9.90;99.90
74488;DHT22;63019;51.080;13.642;2024-01-10T03:18:35;-9.90;99.90
74488;DHT22;63019;51.080;13.642;2024-01-10T03:19:37;-9.90;99.90
74488;DHT22;63019;51.080;13.642;2024-01-10T03:20:44;-9.90;99.90
74488;DHT22;63019;51.080;13.642;2024-01-10T03:21:46;-10.00;99.90
74488;DHT22;63019;51.080;13.642;2024-01-10T03:22:48;-10.00;99.90
74488;DHT22;63019;51.080;13.642;2024-01-10T03:23:50;-10.00;99.90
74488;DHT22;63019;51.080;13.642;2024-01-10T03:24:52;-10.00;99.90
74488;DHT22;63019;51.080;13.642;2024-01-10T03:25:54;-10.00;99.90
74488;DHT22;63019;51.080;13.642;2024-01-10T03:26:57;-10.10;99.90
74488;DHT22;63019;51.080;13.642;2024-01-10T03:27:59;-10.00;99.90
74488;DHT22;63019;51.080;13.642;2024-01-10T03:29:01;-10.00;99.90
74488;DHT22;63019;51.080;13.642;2024-01-10T03:30:03;-10.00;99.90
74488;DHT22;63019;51.080;13.642;2024-01-10T03:31:05;-10.00;99.90
74488;DHT22;63019;51.080;13.642;2024-01-10T03:32:07;-10.00;99.90
74488;DHT22;63019;51.080;13.642;2024-01-10T03:33:09;-10.00;99.90
74488;DHT22;63019;51.080;13.642;2024-01-10T03:34:11;-10.00;99.90
74488;DHT22;63019;51.080;13.642;2024-01-10T03:35:13;-10.00;99.90
74488;DHT22;63019;51.080;13.642;2024-01-10T03:36:17;-10.00;99.90
74488;DHT22;63019;51.080;13.642;2024-01-10T03:37:19;-9.90;99.90
74488;DHT22;63019;51.080;13.642;2024-01-10T03:38:21;-9.90;99.90
74488;DHT22;63019;51.080;13.642;2024-01-10T03:39:23;-9.90;99.90
74488;DHT22;63019;51.080;13.642;2024-01-10T03:40:25;-9.90;99.90
74488;DHT22;63019;51.080;13.642;2024-01-10T03:41:27;-9.90;99.90
74488;DHT22;63019;51.080;13.642;2024-01-10T03:42:29;-9.90;99.90
74488;DHT22;63019;51.080;13.642;2024-01-10T03:43:31;-9.90;99.90
74488;DHT22;63019;51.080;13.642;2024-01-10T03:44:33;-9.90;99.90
74488;DHT22;63019;51.080;13.642;2024-01-10T03:45:34;-9.90;99.90
74488;DHT22;63019;51.080;13.642;2024-01-10T03:46:36;-9.90;99.90
74488;DHT22;63019;51.080;13.642;2024-01-10T03:47:38;-9.90;99.90
74488;DHT22;63019;51.080;13.642;2024-01-10T03:48:40;-9.90;99.90
74488;DHT22;63019;51.080;13.642;2024-01-10T03:49:50;-9.90;99.90
74488;DHT22;63019;51.080;13.642;2024-01-10T03:50:52;-9.90;99.90
74488;DHT22;63019;51.080;13.642;2024-01-10T03:51:54;-9.90;99.90
74488;DHT22;63019;51.080;13.642;2024-01-10T03:52:56;-9.90;99.90
74488;DHT22;63019;51.080;13.642;2024-01-10T03:53:58;-9.90;99.90
74488;DHT22;63019;51.080;13.642;2024-01-10T03:55:00;-9.90;99.90
74488;DHT22;63019;51.080;13.642;2024-01-10T03:56:04;-9.90;99.90
74488;DHT22;63019;51.080;13.642;2024-01-10T03:57:06;-9.90;99.90
74488;DHT22;63019;51.080;13.642;2024-01-10T03:58:08;-9.90;99.90
74488;DHT22;63019;51.080;13.642;2024-01-10T03:59:10;-9.80;99.90
74488;DHT22;63019;51.080;13.642;2024-01-10T04:00:12;-9.80;99.90
74488;DHT22;63019;51.080;13.642;2024-01-10T04:01:14;-9.90;99.90
74488;DHT22;63019;51.080;13.642;2024-01-10T04:02:16;-9.80;99.90
74488;DHT22;63019;51.080;13.642;2024-01-10T04:03:18;-9.90;99.90
74488;DHT22;63019;51.080;13.642;2024-01-10T04:04:20;-9.90;99.90
74488;DHT22;63019;51.080;13.642;2024-01-10T04:05:22;-9.90;99.90
74488;DHT22;63019;51.080;13.642;2024-01-10T04:06:26;-9.80;99.90
74488;DHT22;63019;51.080;13.642;2024-01-10T04:07:29;-9.90;99.90
74488;DHT22;63019;51.080;13.642;2024-01-10T04:08:33;-9.80;99.90
74488;DHT22;63019;51.080;13.642;2024-01-10T04:09:43;-9.90;99.90
74488;DHT22;63019;51.080;13.642;2024-01-10T04:10:49;-9.90;99.90
74488;DHT22;63019;51.080;13.642;2024-01-10T04:12:08;-9.90;99.90
74488;DHT22;63019;51.080;13.642;2024-01-10T04:13:16;-9.80;99.90
74488;DHT22;63019;51.080;13.642;2024-01-10T04:14:28;-9.80;99.90
74488;DHT22;63019;51.080;13.642;2024-01-10T04:15:31;-9.80;99.90
74488;DHT22;63019;51.080;13.642;2024-01-10T04:16:38;-9.80;99.90
74488;DHT22;63019;51.080;13.642;2024-01-10T04:18:13;-9.80;99.90
74488;DHT22;63019;51.080;13.642;2024-01-10T04:21:09;-9.80;99.90
74488;DHT22;63019;51.080;13.642;2024-01-10T04:26:01;-9.90;99.90
74488;DHT22;63019;51.080;13.642;2024-01-10T04:33:38;-9.90;99.90
74488;DHT22;63019;51.080;13.642;2024-01-10T04:35:50;-9.90;99.90
74488;DHT22;63019;51.080;13.642;2024-01-10T04:37:31;-9.90;99.90
74488;DHT22;63019;51.080;13.642;2024-01-10T04:38:45;-9.90;99.90
74488;DHT22;63019;51.080;13.642;2024-01-10T04:40:05;-9.80;99.90
74488;DHT22;63019;51.080;13.642;2024-01-10T04:41:22;-9.80;99.90
74488;DHT22;63019;51.080;13.642;2024-01-10T04:42:30;-9.90;99.90
74488;DHT22;63019;51.080;13.642;2024-01-10T04:43:58;-9.90;99.90
74488;DHT22;63019;51.080;13.642;2024-01-10T04:45:15;-9.90;99.90
74488;DHT22;63019;51.080;13.642;2024-01-10T04:46:22;-10.00;99.90
74488;DHT22;63019;51.080;13.642;2024-01-10T04:47:34;-10.00;99.90
74488;DHT22;63019;51.080;13.642;2024-01-10T04:49:15;-10.00;99.90
74488;DHT22;63019;51.080;13.642;2024-01-10T04:50:59;-9.90;99.90
74488;DHT22;63019;51.080;13.642;2024-01-10T04:52:26;-9.90;99.90
74488;DHT22;63019;51.080;13.642;2024-01-10T04:58:16;-10.10;99.90
74488;DHT22;63019;51.080;13.642;2024-01-10T04:59:33;-10.10;99.90
74488;DHT22;63019;51.080;13.642;2024-01-10T05:00:51;-10.10;99.90
74488;DHT22;63019;51.080;13.642;2024-01-10T05:02:15;-10.20;99.90
74488;DHT22;63019;51.080;13.642;2024-01-10T05:03:32;-10.20;99.90
74488;DHT22;63019;51.080;13.642;2024-01-10T05:05:18;-10.30;99.90
74488;DHT22;63019;51.080;13.642;2024-01-10T05:07:10;-10.30;99.90
74488;DHT22;63019;51.080;13.642;2024-01-10T05:08:26;-10.30;99.90
74488;DHT22;63019;51.080;13.642;2024-01-10T05:12:02;-10.40;99.90
74488;DHT22;63019;51.080;13.642;2024-01-10T05:13:51;-10.40;99.90
74488;DHT22;63019;51.080;13.642;2024-01-10T05:15:27;-10.40;99.90
74488;DHT22;63019;51.080;13.642;2024-01-10T05:17:14;-10.40;99.90
74488;DHT22;63019;51.080;13.642;2024-01-10T05:18:29;-10.40;99.90
74488;DHT22;63019;51.080;13.642;2024-01-10T05:22:01;-10.30;99.90
74488;DHT22;63019;51.080;13.642;2024-01-10T05:23:12;-10.40;99.90
74488;DHT22;63019;51.080;13.642;2024-01-10T05:24:50;-10.40;99.90
74488;DHT22;63019;51.080;13.642;2024-01-10T05:26:14;-10.50;99.90
74488;DHT22;63019;51.080;13.642;2024-01-10T05:28:44;-10.50;99.90
74488;DHT22;63019;51.080;13.642;2024-01-10T05:30:08;-10.40;99.90
74488;DHT22;63019;51.080;13.642;2024-01-10T05:31:30;-10.50;99.90
74488;DHT22;63019;51.080;13.642;2024-01-10T05:33:12;-10.40;99.90
74488;DHT22;63019;51.080;13.642;2024-01-10T05:34:59;-10.40;99.90
74488;DHT22;63019;51.080;13.642;2024-01-10T05:39:18;-10.40;99.90
74488;DHT22;63019;51.080;13.642;2024-01-10T05:41:28;-10.30;99.90
74488;DHT22;63019;51.080;13.642;2024-01-10T05:42:38;-10.30;99.90
74488;DHT22;63019;51.080;13.642;2024-01-10T05:43:59;-10.30;99.90
74488;DHT22;63019;51.080;13.642;2024-01-10T05:45:54;-10.30;99.90
74488;DHT22;63019;51.080;13.642;2024-01-10T05:47:12;-10.20;99.90
74488;DHT22;63019;51.080;13.642;2024-01-10T05:48:33;-10.20;99.90
74488;DHT22;63019;51.080;13.642;2024-01-10T05:49:58;-10.10;99.90
74488;DHT22;63019;51.080;13.642;2024-01-10T05:52:05;-10.10;99.90
74488;DHT22;63019;51.080;13.642;2024-01-10T05:54:12;-10.10;99.90
74488;DHT22;63019;51.080;13.642;2024-01-10T05:55:29;-10.20;99.90
74488;DHT22;63019;51.080;13.642;2024-01-10T05:56:34;-10.20;99.90
74488;DHT22;63019;51.080;13.642;2024-01-10T05:58:15;-10.10;99.90
74488;DHT22;63019;51.080;13.642;2024-01-10T06:00:34;-10.10;99.90
74488;DHT22;63019;51.080;13.642;2024-01-10T06:02:10;-10.20;99.90
74488;DHT22;63019;51.080;13.642;2024-01-10T06:03:23;-10.20;99.90
74488;DHT22;63019;51.080;13.642;2024-01-10T06:05:06;-10.20;99.90
74488;DHT22;63019;51.080;13.642;2024-01-10T06:06:24;-10.20;99.90
74488;DHT22;63019;51.080;13.642;2024-01-10T06:08:06;-10.20;99.90
74488;DHT22;63019;51.080;13.642;2024-01-10T06:09:56;-10.30;99.90
74488;DHT22;63019;51.080;13.642;2024-01-10T06:11:06;-10.30;99.90
74488;DHT22;63019;51.080;13.642;2024-01-10T06:12:15;-10.30;99.90
74488;DHT22;63019;51.080;13.642;2024-01-10T06:13:20;-10.30;99.90
74488;DHT22;63019;51.080;13.642;2024-01-10T06:15:00;-10.30;99.90
74488;DHT22;63019;51.080;13.642;2024-01-10T06:16:09;-10.30;99.90
74488;DHT22;63019;51.080;13.642;2024-01-10T06:17:39;-10.30;99.90
74488;DHT22;63019;51.080;13.642;2024-01-10T06:18:51;-10.30;99.90
74488;DHT22;63019;51.080;13.642;2024-01-10T06:20:14;-10.30;99.90
74488;DHT22;63019;51.080;13.642;2024-01-10T06:21:33;-10.30;99.90
74488;DHT22;63019;51.080;13.642;2024-01-10T06:22:41;-10.30;99.90
74488;DHT22;63019;51.080;13.642;2024-01-10T06:23:49;-10.30;99.90
74488;DHT22;63019;51.080;13.642;2024-01-10T06:24:57;-10.30;99.90
74488;DHT22;63019;51.080;13.642;2024-01-10T06:26:16;-10.30;99.90
74488;DHT22;63019;51.080;13.642;2024-01-10T06:27:18;-10.30;99.90
74488;DHT22;63019;51.080;13.642;2024-01-10T06:28:21;-10.30;99.90
74488;DHT22;63019;51.080;13.642;2024-01-10T06:29:23;-10.30;99.90
74488;DHT22;63019;51.080;13.642;2024-01-10T06:30:41;-10.30;99.90
74488;DHT22;63019;51.080;13.642;2024-01-10T06:31:49;-10.30;99.90
74488;DHT22;63019;51.080;13.642;2024-01-10T06:33:14;-10.40;99.90
74488;DHT22;63019;51.080;13.642;2024-01-10T06:34:18;-10.40;99.90
74488;DHT22;63019;51.080;13.642;2024-01-10T06:35:28;-10.40;99.90
74488;DHT22;63019;51.080;13.642;2024-01-10T06:36:36;-10.40;99.90
74488;DHT22;63019;51.080;13.642;2024-01-10T06:38:11;-10.40;99.90
74488;DHT22;63019;51.080;13.642;2024-01-10T06:39:35;-10.50;99.90
74488;DHT22;63019;51.080;13.642;2024-01-10T06:40:44;-10.40;99.90
74488;DHT22;63019;51.080;13.642;2024-01-10T06:41:56;-10.40;99.90
74488;DHT22;63019;51.080;13.642;2024-01-10T06:43:04;-10.40;99.90
74488;DHT22;63019;51.080;13.642;2024-01-10T06:44:36;-10.40;99.90
74488;DHT22;63019;51.080;13.642;2024-01-10T06:45:58;-10.40;99.90
74488;DHT22;63019;51.080;13.642;2024-01-10T06:47:33;-10.40;99.90
74488;DHT22;63019;51.080;13.642;2024-01-10T06:48:38;-10.40;99.90
74488;DHT22;63019;51.080;13.642;2024-01-10T06:49:51;-10.40;99.90
74488;DHT22;63019;51.080;13.642;2024-01-10T06:50:58;-10.40;99.90
74488;DHT22;63019;51.080;13.642;2024-01-10T06:52:05;-10.40;99.90
74488;DHT22;63019;51.080;13.642;2024-01-10T06:53:09;-10.40;99.90
74488;DHT22;63019;51.080;13.642;2024-01-10T06:54:11;-10.40;99.90
74488;DHT22;63019;51.080;13.642;2024-01-10T06:55:13;-10.40;99.90
74488;DHT22;63019;51.080;13.642;2024-01-10T06:56:15;-10.40;99.90
74488;DHT22;63019;51.080;13.642;2024-01-10T06:57:17;-10.40;99.90
74488;DHT22;63019;51.080;13.642;2024-01-10T06:58:19;-10.40;99.90
74488;DHT22;63019;51.080;13.642;2024-01-10T06:59:21;-10.30;99.90
74488;DHT22;63019;51.080;13.642;2024-01-10T07:00:23;-10.30;99.90
74488;DHT22;63019;51.080;13.642;2024-01-10T07:01:25;-10.30;99.90
74488;DHT22;63019;51.080;13.642;2024-01-10T07:02:27;-10.30;99.90
74488;DHT22;63019;51.080;13.642;2024-01-10T07:03:29;-10.30;99.90
74488;DHT22;63019;51.080;13.642;2024-01-10T07:04:31;-10.30;99.90
74488;DHT22;63019;51.080;13.642;2024-01-10T07:05:34;-10.30;99.90
74488;DHT22;63019;51.080;13.642;2024-01-10T07:06:35;-10.30;99.90
74488;DHT22;63019;51.080;13.642;2024-01-10T07:07:37;-10.30;99.90
74488;DHT22;63019;51.080;13.642;2024-01-10T07:08:39;-10.30;99.90
74488;DHT22;63019;51.080;13.642;2024-01-10T07:09:41;-10.20;99.90
74488;DHT22;63019;51.080;13.642;2024-01-10T07:10:43;-10.20;99.90
74488;DHT22;63019;51.080;13.642;2024-01-10T07:11:49;-10.20;99.90
74488;DHT22;63019;51.080;13.642;2024-01-10T07:12:51;-10.20;99.90
74488;DHT22;63019;51.080;13.642;2024-01-10T07:13:53;-10.20;99.90
74488;DHT22;63019;51.080;13.642;2024-01-10T07:14:55;-10.20;99.90
74488;DHT22;63019;51.080;13.642;2024-01-10T07:15:58;-10.20;99.90
74488;DHT22;63019;51.080;13.642;2024-01-10T07:17:03;-10.20;99.90
74488;DHT22;63019;51.080;13.642;2024-01-10T07:18:06;-10.20;99.90
74488;DHT22;63019;51.080;13.642;2024-01-10T07:19:14;-10.10;99.90
74488;DHT22;63019;51.080;13.642;2024-01-10T07:20:16;-10.10;99.90
74488;DHT22;63019;51.080;13.642;2024-01-10T07:21:18;-10.10;99.90
74488;DHT22;63019;51.080;13.642;2024-01-10T07:22:22;-10.00;99.90
74488;DHT22;63019;51.080;13.642;2024-01-10T07:23:24;-10.00;99.90
74488;DHT22;63019;51.080;13.642;2024-01-10T07:24:27;-10.00;99.90
74488;DHT22;63019;51.080;13.642;2024-01-10T07:25:29;-9.90;99.90
74488;DHT22;63019;51.080;13.642;2024-01-10T07:26:31;-9.90;99.90
74488;DHT22;63019;51.080;13.642;2024-01-10T07:27:33;-10.00;99.90